sensor_id;sensor_type;location;lat;lon;timestamp;P1;durP1;ratioP1;P2;durP2;ratioP2
3683;SDS011;1858;48.716;9.648;2023-08-06T00:01:37;5.50;;;2.63;;
3683;SDS011;1858;48.716;9.648;2023-08-06T00:04:23;4.10;;;2.73;;
3683;SDS011;1858;48.716;9.648;2023-08-06T00:07:10;6.23;;;2.60;;
3683;SDS011;1858;48.716;9.648;2023-08-06T00:09:56;3.80;;;3.10;;
3683;SDS011;1858;48.716;9.648;2023-08-06T00:12:43;4.10;;;2.40;;
3683;SDS011;1858;48.716;9.648;2023-08-06T00:15:29;5.70;;;2.93;;
3683;SDS011;1858;48.716;9.648;2023-08-06T00:18:15;6.20;;;3.30;;
3683;SDS011;1858;48.716;9.648;2023-08-06T00:21:02;4.73;;;3.30;;
3683;SDS011;1858;48.716;9.648;2023-08-06T00:23:52;3.90;;;3.10;;
3683;SDS011;1858;48.716;9.648;2023-08-06T00:26:39;5.93;;;3.13;;
3683;SDS011;1858;48.716;9.648;2023-08-06T00:32:31;4.43;;;2.90;;
3683;SDS011;1858;48.716;9.648;2023-08-06T00:35:17;5.87;;;3.93;;
3683;SDS011;1858;48.716;9.648;2023-08-06T00:38:03;4.63;;;3.37;;
3683;SDS011;1858;48.716;9.648;2023-08-06T00:40:50;4.80;;;3.37;;
3683;SDS011;1858;48.716;9.648;2023-08-06T00:43:37;6.33;;;3.37;;
3683;SDS011;1858;48.716;9.648;2023-08-06T00:46:24;5.07;;;3.40;;
3683;SDS011;1858;48.716;9.648;2023-08-06T00:49:10;4.03;;;3.27;;
3683;SDS011;1858;48.716;9.648;2023-08-06T00:51:57;8.60;;;3.87;;
3683;SDS011;1858;48.716;9.648;2023-08-06T00:54:44;3.93;;;3.50;;
3683;SDS011;1858;48.716;9.648;2023-08-06T00:57:30;4.53;;;3.10;;
3683;SDS011;1858;48.716;9.648;2023-08-06T01:00:17;4.90;;;3.70;;
3683;SDS011;1858;48.716;9.648;2023-08-06T01:03:04;6.97;;;4.33;;
3683;SDS011;1858;48.716;9.648;2023-08-06T01:05:51;4.37;;;3.10;;
3683;SDS011;1858;48.716;9.648;2023-08-06T01:11:52;3.67;;;2.77;;
3683;SDS011;1858;48.716;9.648;2023-08-06T01:14:40;3.50;;;2.90;;
3683;SDS011;1858;48.716;9.648;2023-08-06T01:17:27;3.80;;;2.70;;
3683;SDS011;1858;48.716;9.648;2023-08-06T01:20:14;5.53;;;3.40;;
3683;SDS011;1858;48.716;9.648;2023-08-06T01:23:01;4.50;;;2.90;;
3683;SDS011;1858;48.716;9.648;2023-08-06T01:29:03;4.73;;;3.03;;
3683;SDS011;1858;48.716;9.648;2023-08-06T01:31:48;4.97;;;2.90;;
3683;SDS011;1858;48.716;9.648;2023-08-06T01:34:37;5.43;;;3.00;;
3683;SDS011;1858;48.716;9.648;2023-08-06T01:37:27;3.57;;;2.70;;
3683;SDS011;1858;48.716;9.648;2023-08-06T01:40:14;6.80;;;3.40;;
3683;SDS011;1858;48.716;9.648;2023-08-06T01:43:00;4.10;;;2.70;;
3683;SDS011;1858;48.716;9.648;2023-08-06T01:45:47;8.23;;;3.20;;
3683;SDS011;1858;48.716;9.648;2023-08-06T01:48:33;4.53;;;3.23;;
3683;SDS011;1858;48.716;9.648;2023-08-06T01:51:20;3.90;;;3.27;;
3683;SDS011;1858;48.716;9.648;2023-08-06T01:54:06;3.40;;;2.60;;
3683;SDS011;1858;48.716;9.648;2023-08-06T01:56:52;6.53;;;3.77;;
3683;SDS011;1858;48.716;9.648;2023-08-06T02:02:44;4.30;;;3.20;;
3683;SDS011;1858;48.716;9.648;2023-08-06T02:05:32;4.20;;;3.30;;
3683;SDS011;1858;48.716;9.648;2023-08-06T02:08:18;4.13;;;2.90;;
3683;SDS011;1858;48.716;9.648;2023-08-06T02:11:04;5.10;;;3.20;;
3683;SDS011;1858;48.716;9.648;2023-08-06T02:13:51;3.60;;;3.17;;
3683;SDS011;1858;48.716;9.648;2023-08-06T02:19:43;6.00;;;3.87;;
3683;SDS011;1858;48.716;9.648;2023-08-06T02:22:29;4.30;;;3.10;;
3683;SDS011;1858;48.716;9.648;2023-08-06T02:28:21;4.40;;;3.60;;
3683;SDS011;1858;48.716;9.648;2023-08-06T02:31:08;4.73;;;3.60;;
3683;SDS011;1858;48.716;9.648;2023-08-06T02:33:54;4.13;;;3.20;;
3683;SDS011;1858;48.716;9.648;2023-08-06T02:36:41;4.47;;;3.80;;
3683;SDS011;1858;48.716;9.648;2023-08-06T02:39:28;5.73;;;3.20;;
3683;SDS011;1858;48.716;9.648;2023-08-06T02:42:14;3.90;;;2.93;;
3683;SDS011;1858;48.716;9.648;2023-08-06T02:45:00;3.50;;;2.70;;
3683;SDS011;1858;48.716;9.648;2023-08-06T02:47:47;4.60;;;3.30;;
3683;SDS011;1858;48.716;9.648;2023-08-06T02:50:40;6.87;;;3.87;;
3683;SDS011;1858;48.716;9.648;2023-08-06T02:53:26;5.10;;;3.97;;
3683;SDS011;1858;48.716;9.648;2023-08-06T02:56:13;4.20;;;3.50;;
3683;SDS011;1858;48.716;9.648;2023-08-06T02:58:59;4.53;;;3.30;;
3683;SDS011;1858;48.716;9.648;2023-08-06T03:01:45;3.60;;;2.80;;
3683;SDS011;1858;48.716;9.648;2023-08-06T03:04:32;5.17;;;3.10;;
3683;SDS011;1858;48.716;9.648;2023-08-06T03:07:18;4.87;;;3.50;;
3683;SDS011;1858;48.716;9.648;2023-08-06T03:16:15;3.80;;;2.80;;
3683;SDS011;1858;48.716;9.648;2023-08-06T03:19:01;4.80;;;3.20;;
3683;SDS011;1858;48.716;9.648;2023-08-06T03:21:48;13.50;;;3.40;;
3683;SDS011;1858;48.716;9.648;2023-08-06T03:24:34;2.80;;;2.27;;
3683;SDS011;1858;48.716;9.648;2023-08-06T03:27:20;4.40;;;2.60;;
3683;SDS011;1858;48.716;9.648;2023-08-06T03:30:07;9.50;;;3.27;;
3683;SDS011;1858;48.716;9.648;2023-08-06T03:32:54;3.70;;;2.70;;
3683;SDS011;1858;48.716;9.648;2023-08-06T03:35:40;2.93;;;2.20;;
3683;SDS011;1858;48.716;9.648;2023-08-06T03:38:27;3.70;;;3.03;;
3683;SDS011;1858;48.716;9.648;2023-08-06T03:41:13;4.40;;;2.60;;
3683;SDS011;1858;48.716;9.648;2023-08-06T03:44:00;2.80;;;2.43;;
3683;SDS011;1858;48.716;9.648;2023-08-06T03:46:48;3.70;;;2.67;;
3683;SDS011;1858;48.716;9.648;2023-08-06T03:49:36;3.17;;;2.23;;
3683;SDS011;1858;48.716;9.648;2023-08-06T03:52:22;2.43;;;1.93;;
3683;SDS011;1858;48.716;9.648;2023-08-06T03:55:09;4.03;;;2.53;;
3683;SDS011;1858;48.716;9.648;2023-08-06T03:57:55;4.23;;;3.47;;
3683;SDS011;1858;48.716;9.648;2023-08-06T04:00:41;2.93;;;1.93;;
3683;SDS011;1858;48.716;9.648;2023-08-06T04:03:28;3.13;;;2.13;;
3683;SDS011;1858;48.716;9.648;2023-08-06T04:06:14;2.43;;;1.90;;
3683;SDS011;1858;48.716;9.648;2023-08-06T04:09:01;6.53;;;1.80;;
3683;SDS011;1858;48.716;9.648;2023-08-06T04:11:47;2.90;;;1.80;;
3683;SDS011;1858;48.716;9.648;2023-08-06T04:14:34;7.23;;;2.43;;
3683;SDS011;1858;48.716;9.648;2023-08-06T04:17:20;6.40;;;2.30;;
3683;SDS011;1858;48.716;9.648;2023-08-06T04:20:07;2.57;;;1.60;;
3683;SDS011;1858;48.716;9.648;2023-08-06T04:22:54;2.60;;;1.83;;
3683;SDS011;1858;48.716;9.648;2023-08-06T04:25:41;2.90;;;1.80;;
3683;SDS011;1858;48.716;9.648;2023-08-06T04:31:33;2.17;;;1.43;;
3683;SDS011;1858;48.716;9.648;2023-08-06T04:34:19;2.77;;;1.90;;
3683;SDS011;1858;48.716;9.648;2023-08-06T04:37:06;3.03;;;1.70;;
3683;SDS011;1858;48.716;9.648;2023-08-06T04:39:52;3.10;;;2.00;;
3683;SDS011;1858;48.716;9.648;2023-08-06T04:42:38;2.10;;;1.40;;
3683;SDS011;1858;48.716;9.648;2023-08-06T04:45:24;4.07;;;1.93;;
3683;SDS011;1858;48.716;9.648;2023-08-06T04:48:11;1.97;;;1.47;;
3683;SDS011;1858;48.716;9.648;2023-08-06T04:54:02;3.20;;;2.37;;
3683;SDS011;1858;48.716;9.648;2023-08-06T04:56:49;1.43;;;0.83;;
3683;SDS011;1858;48.716;9.648;2023-08-06T04:59:35;3.63;;;1.43;;
3683;SDS011;1858;48.716;9.648;2023-08-06T05:02:21;2.43;;;1.50;;
3683;SDS011;1858;48.716;9.648;2023-08-06T05:05:09;1.77;;;1.13;;
3683;SDS011;1858;48.716;9.648;2023-08-06T05:07:56;2.23;;;1.23;;
3683;SDS011;1858;48.716;9.648;2023-08-06T05:13:48;2.73;;;1.53;;
3683;SDS011;1858;48.716;9.648;2023-08-06T05:16:35;1.70;;;1.00;;
3683;SDS011;1858;48.716;9.648;2023-08-06T05:19:21;3.37;;;1.40;;
3683;SDS011;1858;48.716;9.648;2023-08-06T05:22:07;2.20;;;1.00;;
3683;SDS011;1858;48.716;9.648;2023-08-06T05:24:53;2.53;;;1.10;;
3683;SDS011;1858;48.716;9.648;2023-08-06T05:27:39;1.20;;;0.93;;
3683;SDS011;1858;48.716;9.648;2023-08-06T05:30:26;1.87;;;1.00;;
3683;SDS011;1858;48.716;9.648;2023-08-06T05:33:12;1.57;;;1.07;;
3683;SDS011;1858;48.716;9.648;2023-08-06T05:35:59;2.13;;;1.10;;
3683;SDS011;1858;48.716;9.648;2023-08-06T05:38:45;2.07;;;0.80;;
3683;SDS011;1858;48.716;9.648;2023-08-06T05:41:32;1.80;;;1.03;;
3683;SDS011;1858;48.716;9.648;2023-08-06T05:47:23;1.50;;;0.70;;
3683;SDS011;1858;48.716;9.648;2023-08-06T05:50:10;4.97;;;0.50;;
3683;SDS011;1858;48.716;9.648;2023-08-06T05:52:56;1.20;;;0.83;;
3683;SDS011;1858;48.716;9.648;2023-08-06T05:55:43;1.70;;;0.70;;
3683;SDS011;1858;48.716;9.648;2023-08-06T05:58:30;1.73;;;0.70;;
3683;SDS011;1858;48.716;9.648;2023-08-06T06:01:16;3.13;;;1.70;;
3683;SDS011;1858;48.716;9.648;2023-08-06T06:04:02;1.33;;;0.67;;
3683;SDS011;1858;48.716;9.648;2023-08-06T06:06:48;1.70;;;0.87;;
3683;SDS011;1858;48.716;9.648;2023-08-06T06:09:34;7.43;;;0.80;;
3683;SDS011;1858;48.716;9.648;2023-08-06T06:15:27;2.23;;;0.80;;
3683;SDS011;1858;48.716;9.648;2023-08-06T06:18:13;1.90;;;0.70;;
3683;SDS011;1858;48.716;9.648;2023-08-06T06:21:00;2.40;;;0.60;;
3683;SDS011;1858;48.716;9.648;2023-08-06T06:23:46;2.30;;;0.40;;
3683;SDS011;1858;48.716;9.648;2023-08-06T06:26:33;2.33;;;0.67;;
3683;SDS011;1858;48.716;9.648;2023-08-06T06:29:19;1.50;;;0.60;;
3683;SDS011;1858;48.716;9.648;2023-08-06T06:35:11;1.57;;;0.53;;
3683;SDS011;1858;48.716;9.648;2023-08-06T06:37:58;2.70;;;0.40;;
3683;SDS011;1858;48.716;9.648;2023-08-06T06:40:53;1.47;;;0.40;;
3683;SDS011;1858;48.716;9.648;2023-08-06T06:43:38;1.20;;;0.50;;
3683;SDS011;1858;48.716;9.648;2023-08-06T06:46:25;1.23;;;0.50;;
3683;SDS011;1858;48.716;9.648;2023-08-06T06:49:11;1.23;;;0.50;;
3683;SDS011;1858;48.716;9.648;2023-08-06T06:51:57;1.03;;;0.47;;
3683;SDS011;1858;48.716;9.648;2023-08-06T06:54:44;0.90;;;0.50;;
3683;SDS011;1858;48.716;9.648;2023-08-06T06:57:30;1.13;;;0.43;;
3683;SDS011;1858;48.716;9.648;2023-08-06T07:03:22;1.07;;;0.50;;
3683;SDS011;1858;48.716;9.648;2023-08-06T07:09:14;2.40;;;0.43;;
3683;SDS011;1858;48.716;9.648;2023-08-06T07:12:00;1.30;;;0.40;;
3683;SDS011;1858;48.716;9.648;2023-08-06T07:14:47;0.93;;;0.40;;
3683;SDS011;1858;48.716;9.648;2023-08-06T07:17:33;0.83;;;0.30;;
3683;SDS011;1858;48.716;9.648;2023-08-06T07:20:19;0.93;;;0.40;;
3683;SDS011;1858;48.716;9.648;2023-08-06T07:23:05;1.00;;;0.50;;
3683;SDS011;1858;48.716;9.648;2023-08-06T07:28:57;1.33;;;0.40;;
3683;SDS011;1858;48.716;9.648;2023-08-06T07:34:49;2.20;;;0.60;;
3683;SDS011;1858;48.716;9.648;2023-08-06T07:37:36;0.80;;;0.30;;
3683;SDS011;1858;48.716;9.648;2023-08-06T07:40:23;0.80;;;0.40;;
3683;SDS011;1858;48.716;9.648;2023-08-06T07:43:09;2.17;;;0.50;;
3683;SDS011;1858;48.716;9.648;2023-08-06T07:45:59;0.90;;;0.40;;
3683;SDS011;1858;48.716;9.648;2023-08-06T07:48:45;0.70;;;0.30;;
3683;SDS011;1858;48.716;9.648;2023-08-06T07:54:37;2.20;;;0.40;;
3683;SDS011;1858;48.716;9.648;2023-08-06T07:57:23;2.40;;;0.60;;
3683;SDS011;1858;48.716;9.648;2023-08-06T08:00:09;0.90;;;0.30;;
3683;SDS011;1858;48.716;9.648;2023-08-06T08:02:55;1.30;;;0.30;;
3683;SDS011;1858;48.716;9.648;2023-08-06T08:05:42;0.97;;;0.33;;
3683;SDS011;1858;48.716;9.648;2023-08-06T08:08:29;0.90;;;0.40;;
3683;SDS011;1858;48.716;9.648;2023-08-06T08:11:15;2.90;;;0.37;;
3683;SDS011;1858;48.716;9.648;2023-08-06T08:14:02;0.90;;;0.40;;
3683;SDS011;1858;48.716;9.648;2023-08-06T08:16:48;1.83;;;0.30;;
3683;SDS011;1858;48.716;9.648;2023-08-06T08:19:35;2.30;;;0.50;;
3683;SDS011;1858;48.716;9.648;2023-08-06T08:22:21;1.07;;;0.37;;
3683;SDS011;1858;48.716;9.648;2023-08-06T08:25:07;0.80;;;0.30;;
3683;SDS011;1858;48.716;9.648;2023-08-06T08:27:54;0.70;;;0.30;;
3683;SDS011;1858;48.716;9.648;2023-08-06T08:30:41;1.43;;;0.30;;
3683;SDS011;1858;48.716;9.648;2023-08-06T08:33:27;0.83;;;0.30;;
3683;SDS011;1858;48.716;9.648;2023-08-06T08:36:13;1.00;;;0.40;;
3683;SDS011;1858;48.716;9.648;2023-08-06T08:39:00;0.70;;;0.30;;
3683;SDS011;1858;48.716;9.648;2023-08-06T08:41:48;0.70;;;0.20;;
3683;SDS011;1858;48.716;9.648;2023-08-06T08:44:34;0.90;;;0.30;;
3683;SDS011;1858;48.716;9.648;2023-08-06T08:47:24;0.80;;;0.30;;
3683;SDS011;1858;48.716;9.648;2023-08-06T08:50:10;1.20;;;0.40;;
3683;SDS011;1858;48.716;9.648;2023-08-06T08:52:58;4.10;;;0.50;;
3683;SDS011;1858;48.716;9.648;2023-08-06T08:55:46;0.77;;;0.30;;
3683;SDS011;1858;48.716;9.648;2023-08-06T08:58:33;0.70;;;0.20;;
3683;SDS011;1858;48.716;9.648;2023-08-06T09:01:20;0.73;;;0.23;;
3683;SDS011;1858;48.716;9.648;2023-08-06T09:04:08;0.70;;;0.30;;
3683;SDS011;1858;48.716;9.648;2023-08-06T09:06:56;0.83;;;0.30;;
3683;SDS011;1858;48.716;9.648;2023-08-06T09:09:43;0.80;;;0.30;;
3683;SDS011;1858;48.716;9.648;2023-08-06T09:12:32;0.90;;;0.43;;
3683;SDS011;1858;48.716;9.648;2023-08-06T09:15:19;0.70;;;0.30;;
3683;SDS011;1858;48.716;9.648;2023-08-06T09:18:09;0.70;;;0.30;;
3683;SDS011;1858;48.716;9.648;2023-08-06T09:20:56;0.70;;;0.20;;
3683;SDS011;1858;48.716;9.648;2023-08-06T09:23:43;0.70;;;0.20;;
3683;SDS011;1858;48.716;9.648;2023-08-06T09:26:33;0.80;;;0.30;;
3683;SDS011;1858;48.716;9.648;2023-08-06T09:29:20;1.00;;;0.30;;
3683;SDS011;1858;48.716;9.648;2023-08-06T09:32:06;0.93;;;0.40;;
3683;SDS011;1858;48.716;9.648;2023-08-06T09:38:05;0.70;;;0.20;;
3683;SDS011;1858;48.716;9.648;2023-08-06T09:40:53;0.70;;;0.23;;
3683;SDS011;1858;48.716;9.648;2023-08-06T09:43:40;0.80;;;0.30;;
3683;SDS011;1858;48.716;9.648;2023-08-06T09:46:28;0.80;;;0.30;;
3683;SDS011;1858;48.716;9.648;2023-08-06T09:49:17;0.80;;;0.30;;
